Terminal Aerodrome Forecast
Issued by NWS Atlanta, GA

Home | Current Version | Previous Version | Text Only | Print | Product List | Glossary On
Versions: 1 2 3 4 5 6 7 8 9 10 11 12 13 14 15 16 17 18 19
000
FTUS42 KFFC 221726
TAFCSG
TAF
KCSG 221726Z 2218/2318 20006KT P6SM VCSH SCT035
      TEMPO 2218/2222 VRB15G25KT 4SM -TSRA BKN030CB
     FM230100 17005KT 5SM SHRA VCTS BKN020CB
     FM230600 26004KT 4SM -SHRA OVC008
     FM231200 25004KT 4SM -SHRA OVC012=

USA.gov is the U.S. government's official web portal to all federal, state and local government web resources and services.